CheckWX is a tool to help pilots better visualize weather data.  It is not intended as a substitute for an official pre-flight weather briefing.

02:15:00 UTC

SAZS TAF
San Carlos De Bariloche Airport
San Carlos de Bariloche, Argentina
TAF SAZS 182300Z 1900/1924 29020KT 6000 SN BKN008 OVC TX05/1918Z TNM03/1911Z TEMPO 1900/1903 0800 SN OVC003 BECMG 1904/1906 30025G40KT 9999 NSW BKN030 BECMG 1912/1914 27015KT CAVOK

Sep-19@
00:00 UTC

Sep-19 @ 00:00 UTC

Sep-19@
04:00 UTC

Sep-19 @ 04:00 UTC

TAF SAZS 182300Z 1900/1924 29020KT 6000 SN BKN008 OVC TX05/1918Z TNM03/1911Z
Wind
  • 290° at 20 KTS
Conditions
Snow
Cloud Levels
  • Broken at 800' AGL

Sep-19@
00:00 UTC

Sep-19 @ 00:00 UTC

Sep-19@
03:00 UTC

Sep-19 @ 03:00 UTC

TEMPO 1900/1903 0800 SN OVC003

Temporary

Temporary Changes expected for less than half the time period

Conditions
Snow
Cloud Levels
  • Overcast at 300' AGL

Sep-19@
04:00 UTC

Sep-19 @ 04:00 UTC

Sep-19@
12:00 UTC

Sep-19 @ 12:00 UTC

BECMG 1904/1906 30025G40KT 9999 NSW BKN030

Becoming

Becoming Conditions expected by Thu, Sep 19, 2019 @ 06:00 UTC

Wind
  • 300° at 25 KTS
  • {Gusting to 40 KTS
Conditions
No significant weather
Cloud Levels
  • Broken at 3,000' AGL

Sep-19@
12:00 UTC

Sep-19 @ 12:00 UTC

Sep-20@
00:00 UTC

Sep-20 @ 00:00 UTC

BECMG 1912/1914 27015KT CAVOK

Becoming

Becoming Conditions expected by Thu, Sep 19, 2019 @ 14:00 UTC

Wind
  • 270° at 15 KTS
Conditions
No significant weather
Cloud Levels
  • No significant clouds